Arcadia, North Carolina
Current Conditions -  °F | °C
As of 11:15 PM on Saturday 25 Oct 2014 (Local Time) from KEXX Reporting Station
Clear Clear  
Wind Chill: 54°   Ceiling: Unl
Heat Index: 54°   Visibility: 10mi
Dew Point: 42°   Wind: 0mph
Humidity: 65%   Direction: NA
Pressure: 29.91"   Gusts: NA
Location:  35.7974°N, 80.2541°W
Report Text: KEXX 260315Z AUTO 00000KT 10SM CLR 12/06 A2991 RMK AO2 T01200057
Loading
Personal Weather Stations






























Interactive Weather Map
Tropical Storm Tracking
New forecast layout! Learn more

10-Day Weather Forecast

Advertisements
Track Severe Weather on mobile